Springfield, OH

2:49 AM EDT on April 26, 2015 (GMT -0400)
Snyder Park | | Change Station
CLOSE
Current Station
Personal Weather Station
Location: Springfield, OH
Elevation: 919 ft
Nearby Weather Stations

Elev 919 ft 39.93 °N, 83.85 °W | Updated 6 seconds ago

Overcast
Overcast
40.9 °F
Feels Like 37 °F
N
5.7
Wind Variable Wind from NW
Gusts 9.2 mph

Today
High -- | Low -- °F
--% Chance of Precip.
Yesterday
High -- | Low -- °F
Precip. -- in
6:42 AM 8:24 PM
First Quarter, 53% visible
Pressure 29.75 in
Visibility 8.0 miles
Clouds Overcast 4100 ft
Windchill 37 °F
Dew Point 32 °F
Humidity 69%
Rainfall 0.00 in
Snow Depth Not available.
UV 0 out of 12
Pollen 6.90 out of 12
Air Quality Not available.
Flu Activity Regional
METAR KSGH 260556Z AUTO 01011KT 8SM OVC041 05/00 A2974 RMK AO2 52008 T00500000 10066 20050 SLP075

More Conditions Fewer Conditions

Pressure 29.75 in
Visibility 8.0 miles
Clouds Overcast 4100 ft
Windchill 37 °F
Dew Point 32 °F
Humidity 69%
Rainfall 0.00 in
Snow Depth Not available.
UV 0 out of 12
Pollen 6.90 out of 12
Air Quality Not available.
Flu Activity Regional
METAR KSGH 260556Z AUTO 01011KT 8SM OVC041 05/00 A2974 RMK AO2 52008 T00500000 10066 20050 SLP075

More Conditions Fewer Conditions

The full scope of the disaster following a powerful 7.8-magnitude earthquake in Nepal may not come into view for days, but global charities are already sending emergency aid. Click to see how you can help.

10-Day Weather Forecast

Almanac

Astronomy

Apr. 26, 2015 Rise Set
Actual Time
Civil Twilight
Nautical Twilight
Astronomical Twilight
Moon
Length of Visible Light
Length of Day
Tomorrow will be .
, % of the Moon is Illuminated

Today's Extremes

State Highs State Lows

Community

WunderPhotos

Upload Photos

1,816,947 photos uploaded!

WunderBlogs® & News

Nearby

Air Quality

  Air Quality AQ Index Pollutant
Not available.

Snow Depth

Station Depth Elevation

Earthquake Activity

City Distance Mag. Time & Date
Minimum magnitude displayed is 2.5.

Coastal Water Temperatures

Place Temperature

Stations

Nearby Weather Stations

Station Location Temp. Windchill Dew Point Humidity Wind Precip. Elev Updated Type